createdAt,value
2022-11-20T00:02:23.146Z,82.05
2022-11-20T00:04:49.429Z,81.88
2022-11-20T00:07:15.347Z,82.02
2022-11-20T00:09:41.150Z,81.87
2022-11-20T00:12:06.993Z,81.49
2022-11-20T00:14:32.699Z,81.27
2022-11-20T00:16:58.461Z,81.37
2022-11-20T00:19:24.131Z,81.36
2022-11-20T00:21:51.628Z,81.29
2022-11-20T00:24:17.444Z,81.18
2022-11-20T00:26:43.148Z,80.97
2022-11-20T00:29:10.433Z,80.88
2022-11-20T00:31:36.108Z,80.99
2022-11-20T00:34:01.869Z,80.72
2022-11-20T00:36:28.961Z,80.50
2022-11-20T00:38:58.671Z,81.03
2022-11-20T00:41:25.844Z,80.85
2022-11-20T00:43:53.188Z,81.00
2022-11-20T00:46:21.685Z,80.79
2022-11-20T00:48:47.956Z,80.43
2022-11-20T00:51:16.020Z,80.84
2022-11-20T00:53:42.267Z,81.23
2022-11-20T00:56:11.534Z,80.78
2022-11-20T00:58:38.800Z,80.96
2022-11-20T01:01:04.623Z,80.69
2022-11-20T01:03:38.994Z,80.88
2022-11-20T01:06:16.202Z,80.86
2022-11-20T01:08:42.309Z,81.36
2022-11-20T01:11:11.704Z,81.77
2022-11-20T01:13:37.556Z,81.58
2022-11-20T01:16:15.341Z,81.20
2022-11-20T01:18:44.311Z,81.59
2022-11-20T01:21:16.570Z,81.55
2022-11-20T01:23:43.741Z,81.67
2022-11-20T01:26:12.025Z,81.89
2022-11-20T01:28:39.673Z,82.18
2022-11-20T01:31:20.236Z,81.74
2022-11-20T01:33:47.726Z,82.14
2022-11-20T01:36:14.658Z,81.68
2022-11-20T01:38:40.434Z,81.75
2022-11-20T01:41:07.549Z,81.96
2022-11-20T01:43:34.345Z,81.77
2022-11-20T01:46:18.408Z,81.56
2022-11-20T01:49:11.114Z,82.07
2022-11-20T01:51:45.022Z,81.97
2022-11-20T01:54:17.285Z,81.84
2022-11-20T01:56:44.420Z,81.96
2022-11-20T01:59:12.323Z,81.89
2022-11-20T02:01:39.406Z,81.89
2022-11-20T02:04:07.186Z,81.66
2022-11-20T02:06:38.887Z,81.62
2022-11-20T02:09:04.542Z,81.56
2022-11-20T02:11:30.986Z,81.63
2022-11-20T02:13:57.218Z,81.28
2022-11-20T02:16:39.068Z,81.38
2022-11-20T02:19:12.985Z,81.63
2022-11-20T02:21:47.324Z,81.49
2022-11-20T02:24:15.714Z,81.55
2022-11-20T02:26:51.331Z,81.67
2022-11-20T02:29:22.989Z,81.44
2022-11-20T02:31:48.901Z,81.71
2022-11-20T02:34:14.585Z,81.49
2022-11-20T02:36:41.753Z,81.45
2022-11-20T02:39:09.203Z,81.56
2022-11-20T02:41:37.328Z,81.64
2022-11-20T02:44:04.432Z,81.40
2022-11-20T02:46:30.952Z,81.35
2022-11-20T02:48:56.707Z,81.38
2022-11-20T02:51:22.784Z,81.39
2022-11-20T02:53:48.701Z,81.43
2022-11-20T02:56:14.671Z,80.96
2022-11-20T02:58:40.355Z,81.53
2022-11-20T03:01:06.082Z,81.42
2022-11-20T03:03:31.999Z,81.48
2022-11-20T03:05:59.715Z,81.22
2022-11-20T03:08:26.149Z,81.36
2022-11-20T03:10:52.199Z,81.29
2022-11-20T03:13:18.013Z,81.12
2022-11-20T03:15:43.700Z,81.39
2022-11-20T03:18:09.387Z,81.54
2022-11-20T03:20:35.117Z,81.51
2022-11-20T03:23:01.592Z,81.78
2022-11-20T03:25:27.657Z,81.59
2022-11-20T03:27:54.361Z,81.40
2022-11-20T03:30:20.136Z,81.49
2022-11-20T03:32:46.319Z,81.65
2022-11-20T03:35:11.993Z,81.88
2022-11-20T03:37:37.648Z,81.88
2022-11-20T03:40:04.221Z,82.16
2022-11-20T03:42:48.076Z,82.12
2022-11-20T03:45:15.807Z,82.14
2022-11-20T03:47:42.133Z,82.41
2022-11-20T03:50:09.364Z,82.20
2022-11-20T03:52:35.033Z,82.04
2022-11-20T03:55:00.876Z,81.99
2022-11-20T03:57:26.681Z,81.86
2022-11-20T03:59:52.376Z,81.87
2022-11-20T04:02:18.426Z,82.04
2022-11-20T04:04:44.502Z,81.82
2022-11-20T04:07:10.252Z,81.93
2022-11-20T04:09:36.031Z,81.79
2022-11-20T04:12:01.721Z,81.90
2022-11-20T04:14:27.384Z,81.56
2022-11-20T04:16:53.242Z,81.42
2022-11-20T04:19:19.355Z,81.80
2022-11-20T04:21:45.679Z,81.72
2022-11-20T04:24:11.928Z,81.31
2022-11-20T04:26:38.691Z,81.50
2022-11-20T04:29:04.406Z,81.87
2022-11-20T04:31:33.137Z,81.89
2022-11-20T04:34:04.204Z,82.26
2022-11-20T04:36:30.718Z,81.84
2022-11-20T04:39:02.012Z,82.02
2022-11-20T04:41:30.472Z,82.28
2022-11-20T04:44:03.281Z,82.39
2022-11-20T04:46:31.192Z,82.56
2022-11-20T04:48:57.154Z,82.31
2022-11-20T04:51:23.110Z,82.26
2022-11-20T04:53:49.069Z,82.20
2022-11-20T04:56:15.553Z,82.53
2022-11-20T04:58:41.992Z,82.11
2022-11-20T05:01:12.226Z,82.30
2022-11-20T05:03:42.305Z,82.38
2022-11-20T05:06:10.301Z,82.27
2022-11-20T05:08:36.013Z,82.18
2022-11-20T05:11:10.303Z,82.19
2022-11-20T05:13:37.113Z,81.75
2022-11-20T05:16:09.063Z,81.92
2022-11-20T05:18:35.767Z,82.08
2022-11-20T05:21:01.887Z,82.27
2022-11-20T05:23:29.099Z,82.07
2022-11-20T05:25:59.167Z,82.08
2022-11-20T05:28:27.500Z,81.66
2022-11-20T05:30:53.270Z,82.12
2022-11-20T05:33:19.332Z,82.20
2022-11-20T05:35:45.026Z,82.09
2022-11-20T05:38:10.704Z,82.36
2022-11-20T05:40:36.416Z,82.37
2022-11-20T05:43:02.607Z,82.24
2022-11-20T05:45:28.542Z,82.55
2022-11-20T05:47:57.500Z,82.95
2022-11-20T05:50:23.190Z,82.71
2022-11-20T05:52:48.855Z,82.84
2022-11-20T05:55:14.764Z,82.62
2022-11-20T05:57:40.447Z,82.45
2022-11-20T06:00:06.833Z,82.19
2022-11-20T06:02:35.472Z,82.38
2022-11-20T06:05:01.244Z,82.26
2022-11-20T06:07:26.968Z,82.39
2022-11-20T06:09:52.697Z,82.06
2022-11-20T06:12:18.405Z,82.36
2022-11-20T06:14:44.085Z,82.22
2022-11-20T06:17:10.119Z,82.72
2022-11-20T06:19:35.780Z,82.82
2022-11-20T06:22:01.445Z,82.71
2022-11-20T06:24:27.216Z,83.02
2022-11-20T06:26:52.992Z,82.66
2022-11-20T06:29:18.775Z,82.49
2022-11-20T06:31:44.896Z,82.54
2022-11-20T06:34:11.905Z,82.57
2022-11-20T06:36:37.730Z,82.47
2022-11-20T06:39:03.727Z,82.67
2022-11-20T06:41:29.398Z,83.83
2022-11-20T06:43:55.413Z,84.73
2022-11-20T06:46:21.840Z,84.10
2022-11-20T06:48:48.416Z,83.65
2022-11-20T06:51:14.569Z,83.25
2022-11-20T06:53:40.349Z,83.51
2022-11-20T06:56:07.645Z,84.64
2022-11-20T06:58:34.809Z,83.63
2022-11-20T07:01:02.073Z,83.60
2022-11-20T07:03:27.903Z,82.94
2022-11-20T07:05:57.854Z,83.32
2022-11-20T07:08:24.760Z,83.03
2022-11-20T07:10:50.813Z,82.95
2022-11-20T07:13:16.656Z,82.73
2022-11-20T07:15:42.330Z,82.45
2022-11-20T07:18:08.112Z,82.72
2022-11-20T07:20:33.793Z,82.72
2022-11-20T07:22:59.667Z,82.76
2022-11-20T07:25:26.784Z,82.25
2022-11-20T07:27:52.669Z,82.35
2022-11-20T07:30:18.737Z,82.71
2022-11-20T07:32:50.654Z,82.51
2022-11-20T07:35:16.525Z,82.54
2022-11-20T07:37:42.208Z,82.42
2022-11-20T07:40:08.194Z,82.20
2022-11-20T07:42:33.876Z,82.70
2022-11-20T07:44:59.700Z,83.14
2022-11-20T07:47:25.404Z,82.47
2022-11-20T07:49:51.084Z,83.01
2022-11-20T07:52:16.765Z,82.96
2022-11-20T07:54:42.436Z,82.79
2022-11-20T07:57:08.124Z,82.62
2022-11-20T07:59:33.832Z,82.22
2022-11-20T08:01:59.486Z,81.46
2022-11-20T08:04:25.190Z,81.48
2022-11-20T08:06:52.749Z,81.06
2022-11-20T08:09:18.595Z,81.62
2022-11-20T08:12:02.846Z,81.69
2022-11-20T08:14:28.545Z,81.47
2022-11-20T08:16:54.241Z,81.67
2022-11-20T08:19:20.792Z,80.76
2022-11-20T08:21:46.661Z,80.71
2022-11-20T08:24:12.447Z,80.77
2022-11-20T08:26:39.630Z,79.83
2022-11-20T08:29:06.643Z,80.15
2022-11-20T08:31:32.769Z,80.18
2022-11-20T08:33:58.449Z,80.59
2022-11-20T08:36:25.449Z,80.60
2022-11-20T08:38:53.421Z,80.11
2022-11-20T08:41:28.417Z,79.35
2022-11-20T08:43:58.090Z,80.20
2022-11-20T08:46:34.445Z,80.34
2022-11-20T08:49:00.347Z,80.45
2022-11-20T08:51:26.036Z,80.03
2022-11-20T08:53:51.712Z,79.93
2022-11-20T08:56:18.089Z,79.92
2022-11-20T08:59:15.439Z,79.76
2022-11-20T09:01:29.804Z,80.30
2022-11-20T09:03:57.149Z,79.69
2022-11-20T09:06:22.806Z,80.09
2022-11-20T09:08:52.651Z,80.56
2022-11-20T09:11:18.390Z,80.33
2022-11-20T09:13:44.150Z,80.17
2022-11-20T09:17:21.985Z,79.58
2022-11-20T09:19:57.706Z,79.70
2022-11-20T09:22:23.360Z,80.75
2022-11-20T09:24:49.283Z,80.83
2022-11-20T09:27:20.114Z,80.04
2022-11-20T09:29:45.770Z,79.46
2022-11-20T09:32:11.486Z,80.84
2022-11-20T09:34:37.190Z,80.31
2022-11-20T09:37:06.246Z,79.48
2022-11-20T09:39:33.945Z,80.69
2022-11-20T09:42:04.726Z,79.60
2022-11-20T09:44:50.083Z,79.91
2022-11-20T09:47:54.889Z,79.82
2022-11-20T09:50:28.022Z,79.38
2022-11-20T09:53:16.799Z,79.00
2022-11-20T09:55:42.736Z,78.86
2022-11-20T09:58:29.620Z,79.33
2022-11-20T10:01:01.230Z,78.23
2022-11-20T10:03:57.098Z,78.32
2022-11-20T10:06:30.406Z,78.96
2022-11-20T10:09:22.604Z,79.12
2022-11-20T10:12:11.704Z,78.69
2022-11-20T10:15:04.774Z,78.46
2022-11-20T10:17:57.842Z,78.27
2022-11-20T10:20:39.073Z,79.98
2022-11-20T10:23:25.983Z,78.96
2022-11-20T10:26:12.505Z,79.41
2022-11-20T10:29:08.829Z,79.48
2022-11-20T10:31:38.372Z,79.28
2022-11-20T10:34:26.969Z,79.68
2022-11-20T10:37:03.827Z,78.89
2022-11-20T10:39:51.134Z,78.80
2022-11-20T10:42:30.266Z,78.68
2022-11-20T10:45:09.453Z,78.54
2022-11-20T10:47:36.093Z,79.42
2022-11-20T10:50:06.277Z,79.52
2022-11-20T10:52:56.478Z,78.49
2022-11-20T10:55:33.161Z,79.20
2022-11-20T10:58:13.584Z,79.01
2022-11-20T11:00:39.660Z,79.08
2022-11-20T11:03:24.081Z,78.66
2022-11-20T11:06:05.788Z,79.01
2022-11-20T11:08:37.763Z,78.90
2022-11-20T11:11:20.578Z,79.22
2022-11-20T11:13:46.274Z,79.28
2022-11-20T11:16:26.616Z,78.96
2022-11-20T11:19:07.207Z,78.70
2022-11-20T11:21:32.992Z,80.03
2022-11-20T11:24:26.770Z,79.39
2022-11-20T11:26:59.349Z,79.87
2022-11-20T11:29:28.328Z,76.77
2022-11-20T11:32:21.894Z,76.68
2022-11-20T11:35:18.670Z,77.98
2022-11-20T11:37:47.362Z,77.49
2022-11-20T11:40:23.790Z,77.96
2022-11-20T11:43:38.099Z,79.43
2022-11-20T11:46:34.320Z,79.62
2022-11-20T11:49:09.202Z,78.66
2022-11-20T11:51:46.754Z,79.79
2022-11-20T11:54:28.503Z,79.69
2022-11-20T11:56:54.611Z,79.51
2022-11-20T11:59:46.154Z,79.88
2022-11-20T12:02:29.943Z,80.58
2022-11-20T12:05:09.005Z,80.63
2022-11-20T12:07:48.100Z,80.11
2022-11-20T12:10:32.533Z,79.03
2022-11-20T12:13:13.769Z,79.42
2022-11-20T12:15:43.295Z,78.78
2022-11-20T12:18:16.001Z,78.26
2022-11-20T12:20:53.488Z,78.01
2022-11-20T12:23:42.804Z,79.72
2022-11-20T12:26:38.034Z,79.82
2022-11-20T12:29:15.523Z,79.67
2022-11-20T12:31:55.463Z,80.47
2022-11-20T12:34:29.095Z,80.77
2022-11-20T12:37:16.332Z,80.31
2022-11-20T12:39:43.370Z,80.49
2022-11-20T12:42:48.634Z,80.39
2022-11-20T12:45:29.603Z,80.59
2022-11-20T12:48:22.694Z,80.03
2022-11-20T12:51:18.908Z,80.04
2022-11-20T12:54:17.961Z,79.76
2022-11-20T12:56:51.239Z,80.60
2022-11-20T12:59:38.818Z,79.73
2022-11-20T13:02:30.728Z,81.02
2022-11-20T13:05:19.132Z,79.91
2022-11-20T13:07:45.236Z,79.49
2022-11-20T13:10:36.724Z,79.41
2022-11-20T13:13:17.326Z,80.35
2022-11-20T13:15:56.179Z,80.36
2022-11-20T13:18:22.002Z,80.32
2022-11-20T13:20:49.734Z,79.87
2022-11-20T13:23:26.115Z,79.76
2022-11-20T13:26:02.777Z,80.04
2022-11-20T13:28:30.346Z,80.16
2022-11-20T13:30:58.337Z,80.25
2022-11-20T13:33:29.650Z,80.89
2022-11-20T13:36:01.790Z,81.59
2022-11-20T13:38:33.734Z,80.64
2022-11-20T13:41:24.101Z,80.52
2022-11-20T13:43:50.221Z,80.34
2022-11-20T13:46:16.042Z,81.36
2022-11-20T13:48:45.461Z,80.59
2022-11-20T13:51:29.301Z,80.97
2022-11-20T13:54:21.282Z,81.98
2022-11-20T13:57:14.258Z,82.41
2022-11-20T14:00:01.760Z,81.88
2022-11-20T14:02:30.192Z,83.05
2022-11-20T14:04:59.024Z,83.59
2022-11-20T14:07:39.676Z,82.61
2022-11-20T14:10:06.294Z,83.91
2022-11-20T14:12:33.861Z,83.45
2022-11-20T14:15:00.296Z,83.06
2022-11-20T14:17:28.760Z,82.66
2022-11-20T14:19:57.974Z,82.92
2022-11-20T14:22:26.491Z,82.73
2022-11-20T14:25:06.187Z,81.90
2022-11-20T14:27:36.634Z,82.25
2022-11-20T14:30:03.504Z,82.03
2022-11-20T14:32:31.318Z,82.79
2022-11-20T14:35:00.285Z,83.15
2022-11-20T14:37:29.895Z,83.22
2022-11-20T14:39:56.561Z,83.08
2022-11-20T14:42:25.116Z,82.74
2022-11-20T14:44:53.157Z,83.52
2022-11-20T14:47:22.415Z,82.69
2022-11-20T14:49:49.864Z,82.65
2022-11-20T14:52:23.895Z,83.20
2022-11-20T14:54:51.625Z,82.14
2022-11-20T14:57:23.444Z,83.23
2022-11-20T14:59:49.091Z,82.66
2022-11-20T15:02:15.161Z,83.36
2022-11-20T15:04:49.030Z,83.34
2022-11-20T15:07:25.172Z,83.23
2022-11-20T15:10:00.975Z,83.53
2022-11-20T15:12:27.160Z,82.96
2022-11-20T15:14:52.909Z,82.93
2022-11-20T15:17:18.581Z,82.71
2022-11-20T15:19:44.270Z,82.48
2022-11-20T15:22:16.720Z,83.41
2022-11-20T15:24:42.711Z,83.47
2022-11-20T15:27:09.736Z,83.86
2022-11-20T15:29:35.418Z,83.47
2022-11-20T15:32:01.148Z,82.24
2022-11-20T15:34:27.358Z,82.60
2022-11-20T15:36:54.566Z,82.67
2022-11-20T15:39:20.656Z,83.39
2022-11-20T15:41:47.074Z,83.09
2022-11-20T15:44:12.762Z,82.54
2022-11-20T15:46:42.613Z,82.32
2022-11-20T15:49:13.985Z,82.40
2022-11-20T15:51:46.514Z,82.35
2022-11-20T15:54:13.565Z,82.29
2022-11-20T15:56:39.269Z,82.26
2022-11-20T15:59:04.939Z,82.67
2022-11-20T16:01:30.890Z,82.36
2022-11-20T16:03:56.695Z,82.31
2022-11-20T16:06:22.402Z,82.84
2022-11-20T16:08:48.099Z,82.27
2022-11-20T16:11:15.611Z,82.42
2022-11-20T16:14:00.334Z,82.11
2022-11-20T16:16:30.343Z,82.92
2022-11-20T16:18:56.953Z,83.36
2022-11-20T16:21:31.325Z,83.28
2022-11-20T16:24:01.785Z,83.31
2022-11-20T16:26:27.957Z,82.44
2022-11-20T16:28:54.129Z,82.90
2022-11-20T16:31:20.493Z,82.51
2022-11-20T16:34:02.568Z,82.51
2022-11-20T16:36:30.115Z,83.08
2022-11-20T16:39:00.874Z,83.73
2022-11-20T16:41:29.890Z,83.47
2022-11-20T16:43:58.128Z,83.05
2022-11-20T16:46:26.045Z,83.48
2022-11-20T16:48:55.873Z,83.77
2022-11-20T16:51:23.340Z,83.02
2022-11-20T16:53:52.774Z,82.99
2022-11-20T16:56:24.225Z,82.84
2022-11-20T16:58:50.594Z,83.77
2022-11-20T17:01:20.389Z,82.67
2022-11-20T17:03:53.159Z,83.15
2022-11-20T17:06:24.864Z,83.42
2022-11-20T17:08:50.927Z,83.23
2022-11-20T17:11:18.565Z,82.74
2022-11-20T17:13:45.044Z,83.28
2022-11-20T17:16:13.776Z,83.10
2022-11-20T17:18:40.248Z,83.44
2022-11-20T17:21:06.713Z,83.13
2022-11-20T17:23:34.559Z,83.22
2022-11-20T17:26:05.512Z,84.22
2022-11-20T17:28:31.733Z,83.72
2022-11-20T17:31:16.717Z,84.38
2022-11-20T17:33:44.590Z,84.08
2022-11-20T17:36:12.184Z,84.44
2022-11-20T17:38:37.970Z,84.10
2022-11-20T17:41:07.814Z,83.61
2022-11-20T17:43:36.379Z,83.88
2022-11-20T17:46:09.030Z,83.82
2022-11-20T17:48:35.357Z,83.70
2022-11-20T17:51:03.376Z,84.57
2022-11-20T17:53:32.797Z,85.13
2022-11-20T17:56:17.000Z,85.93
2022-11-20T17:58:42.805Z,84.88
2022-11-20T18:01:09.273Z,85.49
2022-11-20T18:03:35.737Z,84.95
2022-11-20T18:06:13.294Z,85.10
2022-11-20T18:08:39.349Z,84.25
2022-11-20T18:11:18.652Z,84.38
2022-11-20T18:14:04.917Z,84.63
2022-11-20T18:16:33.604Z,84.70
2022-11-20T18:18:59.565Z,84.86
2022-11-20T18:21:27.352Z,84.35
2022-11-20T18:23:54.222Z,84.81
2022-11-20T18:26:20.096Z,83.92
2022-11-20T18:28:46.108Z,84.67
2022-11-20T18:31:13.237Z,84.41
2022-11-20T18:33:39.195Z,84.28
2022-11-20T18:36:09.687Z,85.16
2022-11-20T18:38:35.805Z,84.79
2022-11-20T18:41:04.001Z,84.47
2022-11-20T18:43:49.371Z,84.90
2022-11-20T18:46:15.057Z,85.32
2022-11-20T18:48:41.239Z,84.68
2022-11-20T18:51:07.441Z,84.91
2022-11-20T18:53:35.989Z,85.77
2022-11-20T18:56:05.535Z,85.04
2022-11-20T18:58:31.298Z,84.84
2022-11-20T19:01:04.731Z,85.52
2022-11-20T19:03:30.433Z,86.02
2022-11-20T19:05:56.102Z,86.05
2022-11-20T19:08:21.810Z,86.62
2022-11-20T19:10:47.498Z,86.86
2022-11-20T19:13:13.198Z,86.57
2022-11-20T19:15:39.336Z,86.25
2022-11-20T19:18:05.964Z,86.01
2022-11-20T19:20:31.952Z,86.24
2022-11-20T19:22:57.713Z,86.60
2022-11-20T19:25:23.425Z,86.65
2022-11-20T19:27:49.125Z,85.71
2022-11-20T19:30:14.898Z,86.14
2022-11-20T19:32:40.575Z,85.58
2022-11-20T19:35:06.640Z,86.65
2022-11-20T19:37:33.542Z,86.21
2022-11-20T19:40:00.506Z,86.17
2022-11-20T19:42:26.239Z,86.97
2022-11-20T19:44:52.481Z,86.36
2022-11-20T19:47:18.140Z,86.57
2022-11-20T19:49:43.900Z,87.32
2022-11-20T19:52:10.056Z,87.17
2022-11-20T19:54:35.742Z,86.37
2022-11-20T19:57:01.455Z,86.30
2022-11-20T19:59:27.336Z,86.59
2022-11-20T20:01:53.093Z,86.28
2022-11-20T20:04:19.497Z,86.13
2022-11-20T20:06:45.201Z,86.60
2022-11-20T20:09:12.500Z,85.89
2022-11-20T20:11:39.071Z,85.38
2022-11-20T20:14:07.842Z,86.25
2022-11-20T20:16:34.528Z,85.56
2022-11-20T20:19:02.478Z,85.13
2022-11-20T20:21:29.778Z,85.69
2022-11-20T20:23:56.148Z,85.97
2022-11-20T20:26:26.751Z,85.63
2022-11-20T20:28:52.840Z,85.76
2022-11-20T20:31:20.974Z,85.54
2022-11-20T20:33:46.930Z,85.45
2022-11-20T20:36:15.616Z,86.36
2022-11-20T20:38:42.673Z,85.64
2022-11-20T20:41:08.380Z,85.28
2022-11-20T20:43:55.015Z,85.09
2022-11-20T20:46:20.800Z,85.56
2022-11-20T20:48:51.516Z,85.62
2022-11-20T20:51:19.966Z,85.93
2022-11-20T20:53:45.645Z,85.36
2022-11-20T20:56:11.369Z,84.63
2022-11-20T20:58:37.137Z,85.17
2022-11-20T21:01:06.159Z,85.69
2022-11-20T21:03:33.353Z,84.60
2022-11-20T21:05:59.152Z,85.34
2022-11-20T21:08:25.693Z,84.50
2022-11-20T21:10:53.512Z,84.95
2022-11-20T21:13:21.090Z,83.82
2022-11-20T21:15:49.752Z,83.94
2022-11-20T21:18:17.189Z,83.46
2022-11-20T21:21:03.156Z,84.09
2022-11-20T21:23:28.738Z,82.96
2022-11-20T21:25:54.338Z,83.90
2022-11-20T21:28:20.072Z,84.09
2022-11-20T21:30:46.535Z,83.70
2022-11-20T21:33:12.646Z,83.73
2022-11-20T21:35:38.369Z,82.58
2022-11-20T21:38:04.734Z,83.03
2022-11-20T21:40:30.393Z,83.13
2022-11-20T21:42:56.082Z,82.89
2022-11-20T21:45:21.924Z,83.15
2022-11-20T21:47:51.068Z,83.24
2022-11-20T21:50:17.887Z,83.57
2022-11-20T21:52:43.905Z,83.33
2022-11-20T21:55:10.248Z,83.60
2022-11-20T21:57:35.930Z,83.83
2022-11-20T22:00:03.689Z,82.87
2022-11-20T22:02:29.377Z,83.78
2022-11-20T22:04:55.252Z,83.56
2022-11-20T22:07:20.954Z,83.66
2022-11-20T22:09:46.651Z,83.67
2022-11-20T22:12:12.355Z,84.12
2022-11-20T22:14:38.090Z,84.11
2022-11-20T22:17:03.827Z,84.27
2022-11-20T22:19:29.524Z,83.47
2022-11-20T22:21:55.266Z,83.40
2022-11-20T22:24:22.650Z,83.97
2022-11-20T22:26:49.328Z,83.96
2022-11-20T22:29:17.579Z,83.68
2022-11-20T22:31:43.733Z,84.48
2022-11-20T22:34:11.816Z,83.79
2022-11-20T22:36:37.978Z,84.29
2022-11-20T22:39:04.691Z,84.05
2022-11-20T22:41:31.064Z,84.26
2022-11-20T22:44:01.872Z,83.83
2022-11-20T22:46:30.202Z,83.86
2022-11-20T22:49:00.758Z,84.19
2022-11-20T22:51:29.049Z,83.70
2022-11-20T22:53:55.086Z,83.47
2022-11-20T22:56:21.839Z,84.24
2022-11-20T22:58:50.204Z,83.83
2022-11-20T23:01:21.084Z,83.16
2022-11-20T23:03:51.841Z,83.24
2022-11-20T23:06:19.268Z,84.24
2022-11-20T23:08:45.350Z,83.77
2022-11-20T23:11:16.190Z,83.39
2022-11-20T23:13:43.089Z,83.99
2022-11-20T23:16:11.536Z,84.13
2022-11-20T23:18:37.287Z,83.65
2022-11-20T23:21:07.946Z,83.81
2022-11-20T23:23:33.640Z,84.24
2022-11-20T23:26:04.069Z,84.58
2022-11-20T23:28:29.843Z,84.52
2022-11-20T23:30:56.554Z,83.81
2022-11-20T23:33:22.230Z,84.79
2022-11-20T23:35:48.232Z,84.00
2022-11-20T23:38:13.906Z,84.31
2022-11-20T23:40:41.422Z,83.51
2022-11-20T23:43:16.189Z,84.13
2022-11-20T23:45:43.627Z,84.32
2022-11-20T23:48:09.310Z,84.09
2022-11-20T23:50:35.465Z,83.34
2022-11-20T23:53:01.149Z,84.31
2022-11-20T23:55:27.221Z,84.28
2022-11-20T23:57:52.954Z,83.82
